YPTN/KTR METAR and TAF weather

Enter ICAO airport designator
Station Type Date Time Source
YPTN METAR 2021/07/27 21:00 UTC NOAA

YPTN 272100Z AUTO 17004KT 9999 // NCD 15/12 Q1013


Station Type Date Time Source
YPTN Decoded METAR 2021/07/27 21:00 UTC NOAA

Tindal / Katherine, Australia (YPTN) 14-26S 132-16E 109M
Jul 27, 2021 - 05:00 PM EDT / 2021.07.27 2100 UTC
Wind: from the S (170 degrees) at 5 MPH (4 KT):0
Visibility: greater than 7 mile(s):0
Temperature: 59 F (15 C)
Dew Point: 53 F (12 C)
Relative Humidity: 82%
Pressure (altimeter): 29.91 in. Hg (1013 hPa)
ob: YPTN 272100Z AUTO 17004KT 9999 // NCD 15/12 Q1013
cycle: 21

Station Type Date Time Source
YPTN TAF 2021/07/27 18:03 UTC NOAA

TAF YPTN 271653Z 2718/2818 11006KT CAVOK

Example: see airport list